Aviation Digital Data Service (ADDS)

Output produced by TAFs form (2220 UTC 10 December 2016)
found at http://aviationweather.gov/adds/tafs/
 
KELP 101720Z 1018/1118 22005KT P6SM FEW250 
     FM110100 21005KT P6SM SKC 
     FM111200 24010KT P6SM SCT200